Time;durP1;ratioP1;P1;durP2;ratioP2;P2;SDS_P1;SDS_P2;PMS_P1;PMS_P2;Temp;Humidity;BMP_temperature;BMP_pressure;BME280_temperature;BME280_humidity;BME280_pressure;Samples;Min_cycle;Max_cycle;Signal;HPM_P1;HPM_P2
2022/07/14 00:00:46;;;;;;;19.30;9.38;;;;;;;16.55;78.13;101991.81;4993574;28;20065;-56
2022/07/14 00:03:12;;;;;;;22.70;9.35;;;;;;;16.55;78.00;101987.06;5015521;28;20061;-57
2022/07/14 00:05:37;;;;;;;21.42;9.75;;;;;;;16.54;77.88;101988.19;5008261;28;20480;-57
2022/07/14 00:08:03;;;;;;;21.90;9.52;;;;;;;16.57;78.21;101998.72;5007349;28;20022;-57
2022/07/14 00:10:28;;;;;;;24.13;9.85;;;;;;;16.56;77.97;101991.50;5020389;28;20037;-57
2022/07/14 00:12:54;;;;;;;21.73;9.50;;;;;;;16.51;78.25;101988.84;5013433;28;20068;-57
2022/07/14 00:15:19;;;;;;;19.35;9.35;;;;;;;16.52;78.29;101988.53;5022269;28;20101;-58
2022/07/14 00:17:45;;;;;;;23.05;9.30;;;;;;;16.46;78.50;101994.56;4999077;28;20119;-57
2022/07/14 00:20:10;;;;;;;19.67;9.85;;;;;;;16.45;78.82;101981.72;5023054;28;20029;-57
2022/07/14 00:22:36;;;;;;;22.15;9.32;;;;;;;16.46;78.64;101980.59;5011844;28;20022;-58
2022/07/14 00:25:01;;;;;;;22.40;9.63;;;;;;;16.43;78.85;101982.06;5018043;28;20030;-58
2022/07/14 00:27:27;;;;;;;21.83;9.38;;;;;;;16.39;78.89;101981.03;5018013;28;20033;-58
2022/07/14 00:29:53;;;;;;;21.77;10.18;;;;;;;16.38;79.26;101983.00;5015784;28;20052;-57
2022/07/14 00:32:18;;;;;;;20.98;9.77;;;;;;;16.36;79.07;101968.53;5019738;28;20052;-59
2022/07/14 00:34:44;;;;;;;22.38;10.88;;;;;;;16.28;79.74;101962.91;5013668;28;20103;-58
2022/07/14 00:37:09;;;;;;;23.90;9.70;;;;;;;16.31;79.56;101959.47;5021657;28;20381;-58
2022/07/14 00:42:35;;;;;;;20.83;10.00;;;;;;;16.30;79.40;101958.66;5024665;28;20064;-57
2022/07/14 00:45:04;;;;;;;21.85;10.30;;;;;;;16.25;79.92;101971.91;5030050;28;20017;-56
2022/07/14 00:47:30;;;;;;;20.38;9.50;;;;;;;16.19;80.42;101974.84;5022741;28;20309;-58
2022/07/14 00:49:56;;;;;;;21.58;10.50;;;;;;;16.14;80.01;101962.97;5010763;28;20407;-58
2022/07/14 00:52:26;;;;;;;21.63;10.82;;;;;;;16.03;80.68;101960.44;5021752;28;20175;-57
2022/07/14 00:54:52;;;;;;;21.70;9.95;;;;;;;16.06;80.55;101967.34;5012684;28;20049;-58
2022/07/14 00:57:18;;;;;;;24.10;10.20;;;;;;;16.14;80.53;101972.16;5017065;28;20461;-58
2022/07/14 00:59:44;;;;;;;20.05;10.57;;;;;;;16.06;80.41;101965.34;5009075;28;20049;-57
2022/07/14 01:02:09;;;;;;;21.90;10.23;;;;;;;16.04;80.76;101967.66;5015486;28;20021;-58
2022/07/14 01:04:34;;;;;;;22.02;10.43;;;;;;;15.99;80.96;101973.34;5018901;28;20026;-59
2022/07/14 01:07:00;;;;;;;21.85;10.50;;;;;;;15.93;80.87;101976.56;5011854;28;20029;-58
2022/07/14 01:09:25;;;;;;;21.60;10.23;;;;;;;16.00;80.66;101986.16;5021358;28;20033;-57
2022/07/14 01:11:51;;;;;;;24.48;10.63;;;;;;;15.95;81.15;101977.94;5010484;28;20030;-58
2022/07/14 01:14:16;;;;;;;21.02;10.25;;;;;;;15.87;80.91;101961.94;5020363;28;20400;-58
2022/07/14 01:16:42;;;;;;;23.83;10.45;;;;;;;15.88;81.36;101985.88;5013130;28;20065;-58
2022/07/14 01:19:08;;;;;;;25.45;11.30;;;;;;;15.84;81.64;101990.47;5015451;28;20421;-58
2022/07/14 01:21:34;;;;;;;21.80;10.70;;;;;;;15.83;81.49;101983.19;5017844;28;20124;-59
2022/07/14 01:23:59;;;;;;;23.67;10.05;;;;;;;15.85;81.33;101995.72;5014733;28;20446;-58
2022/07/14 01:26:24;;;;;;;23.38;10.82;;;;;;;15.88;81.59;101999.84;5018856;28;20041;-57
2022/07/14 01:28:50;;;;;;;23.98;11.15;;;;;;;15.89;81.79;102001.50;5010984;28;20034;-58
2022/07/14 01:31:15;;;;;;;21.50;10.45;;;;;;;15.93;81.75;101996.94;5021353;28;20170;-57
2022/07/14 01:33:40;;;;;;;25.98;11.50;;;;;;;15.86;82.13;102004.94;5009318;28;20028;-57
2022/07/14 01:36:06;;;;;;;22.17;10.48;;;;;;;15.89;82.27;102010.72;5019073;28;20330;-56
2022/07/14 01:38:31;;;;;;;23.70;11.20;;;;;;;15.89;82.33;102015.44;5013400;28;20128;-58
2022/07/14 01:40:56;;;;;;;23.02;11.15;;;;;;;15.89;81.86;102015.44;5014659;28;20052;-57
2022/07/14 01:43:22;;;;;;;24.38;11.02;;;;;;;15.83;82.59;102014.72;5018522;28;20121;-58
2022/07/14 01:45:47;;;;;;;23.15;10.93;;;;;;;15.81;82.42;102010.59;5012804;28;20033;-59
2022/07/14 01:48:12;;;;;;;24.98;11.07;;;;;;;15.70;82.95;102007.22;5019563;28;20083;-58
2022/07/14 01:50:38;;;;;;;21.75;11.50;;;;;;;15.71;83.18;101998.50;5028178;28;20030;-59
2022/07/14 01:53:03;;;;;;;23.52;11.75;;;;;;;15.71;83.07;101998.50;5022433;28;20034;-58
2022/07/14 01:55:28;;;;;;;22.92;10.60;;;;;;;15.65;83.73;102008.16;5009963;28;20026;-59
2022/07/14 01:57:54;;;;;;;24.08;11.10;;;;;;;15.63;83.43;102001.25;5018406;28;20462;-58
2022/07/14 02:00:19;;;;;;;21.83;11.25;;;;;;;15.54;84.04;101984.41;5017794;28;20038;-58
2022/07/14 02:02:44;;;;;;;22.08;11.30;;;;;;;15.49;84.32;101988.13;5018537;28;20057;-58
2022/07/14 02:05:10;;;;;;;22.48;11.23;;;;;;;15.44;84.48;101994.63;5012434;28;20030;-58
2022/07/14 02:07:35;;;;;;;21.88;11.15;;;;;;;15.34;84.92;101991.25;5008108;28;20030;-59
2022/07/14 02:12:45;;;;;;;25.17;11.18;;;;;;;15.21;85.14;101985.38;5018461;28;20110;-58
2022/07/14 02:15:10;;;;;;;24.52;10.90;;;;;;;15.18;85.19;101988.75;5029394;28;20026;-58
2022/07/14 02:17:36;;;;;;;24.10;11.20;;;;;;;15.19;85.33;101984.03;5019379;28;20128;-58
2022/07/14 02:20:01;;;;;;;26.90;11.70;;;;;;;15.17;85.34;101967.59;5019322;28;20026;-58
2022/07/14 02:22:27;;;;;;;23.48;11.23;;;;;;;15.15;85.31;101986.63;5014555;28;20036;-57
2022/07/14 02:24:52;;;;;;;25.33;11.00;;;;;;;15.03;85.81;101978.75;5016189;28;20041;-59
2022/07/14 02:27:18;;;;;;;23.77;11.57;;;;;;;15.01;85.71;101982.97;5014670;28;20037;-58
2022/07/14 02:29:43;;;;;;;23.98;11.43;;;;;;;14.94;85.84;101984.22;5017713;28;20037;-59
2022/07/14 02:32:08;;;;;;;23.30;11.15;;;;;;;14.91;85.89;101982.03;5011890;28;20057;-58
2022/07/14 02:34:33;;;;;;;23.08;10.95;;;;;;;14.84;86.71;101991.94;5020578;28;20040;-58
2022/07/14 02:36:59;;;;;;;22.92;10.85;;;;;;;14.80;86.78;101991.72;5009393;28;20540;-58
2022/07/14 02:39:24;;;;;;;23.90;11.55;;;;;;;14.77;86.56;101993.16;5019397;28;20536;-59
2022/07/14 02:41:50;;;;;;;26.63;11.60;;;;;;;14.73;86.90;101994.94;5012549;28;20030;-59
2022/07/14 02:44:15;;;;;;;24.58;11.63;;;;;;;14.64;87.09;101982.81;5014743;28;20026;-58
2022/07/14 02:46:40;;;;;;;23.20;11.25;;;;;;;14.60;87.25;101981.75;5016879;28;20042;-59
2022/07/14 02:49:06;;;;;;;24.60;11.75;;;;;;;14.54;87.30;101980.22;5012788;28;20062;-59
2022/07/14 02:51:32;;;;;;;21.33;10.35;;;;;;;14.53;88.24;101978.56;5018080;28;20034;-58
2022/07/14 02:53:57;;;;;;;20.42;10.93;;;;;;;14.49;87.92;101981.13;5012523;28;20033;-58
2022/07/14 02:56:22;;;;;;;24.48;11.50;;;;;;;14.48;88.31;101971.94;5025169;28;20033;-58
2022/07/14 02:58:48;;;;;;;23.80;11.18;;;;;;;14.45;88.36;101980.88;5012578;28;20025;-58
2022/07/14 03:01:13;;;;;;;25.13;11.55;;;;;;;14.40;87.90;101978.19;5022536;28;20041;-59
2022/07/14 03:03:38;;;;;;;22.75;10.93;;;;;;;14.40;88.40;101971.81;5016731;28;20398;-58
2022/07/14 03:06:22;;;;;;;21.52;10.63;;;;;;;14.30;88.36;101954.16;5017465;28;20541;-56
2022/07/14 03:08:47;;;;;;;23.27;11.20;;;;;;;14.34;88.69;101968.28;5025145;28;20372;-57
2022/07/14 03:11:13;;;;;;;26.33;11.25;;;;;;;14.30;88.64;101961.66;5026588;28;20096;-57
2022/07/14 03:13:38;;;;;;;24.60;11.35;;;;;;;14.22;89.43;101962.38;5019290;28;20418;-57
2022/07/14 03:16:08;;;;;;;23.67;11.82;;;;;;;14.22;89.29;101970.72;4995641;28;20026;-55
2022/07/14 03:18:34;;;;;;;24.63;10.95;;;;;;;14.14;89.85;101963.88;5020104;28;20054;-58
2022/07/14 03:20:59;;;;;;;23.67;11.15;;;;;;;14.09;89.83;101947.28;5031753;28;20116;-58
2022/07/14 03:23:24;;;;;;;23.45;11.15;;;;;;;14.06;89.95;101945.94;5023329;28;20026;-56
2022/07/14 03:25:50;;;;;;;24.77;10.90;;;;;;;14.02;90.56;101953.22;5014620;28;20473;-59
2022/07/14 03:28:15;;;;;;;22.33;11.10;;;;;;;13.99;90.55;101954.66;5017814;28;20179;-58
2022/07/14 03:30:41;;;;;;;24.10;11.23;;;;;;;13.95;90.79;101950.81;5019133;28;20025;-59
2022/07/14 03:33:06;;;;;;;25.42;12.43;;;;;;;13.94;90.91;101946.38;5013586;28;20040;-57
2022/07/14 03:35:32;;;;;;;23.05;11.40;;;;;;;13.91;90.79;101946.16;5022783;28;20025;-58
2022/07/14 03:37:57;;;;;;;23.50;11.43;;;;;;;13.89;90.72;101946.47;5029386;28;20029;-57
2022/07/14 03:40:23;;;;;;;24.27;11.95;;;;;;;13.80;90.57;101934.38;5023936;28;20033;-57
2022/07/14 03:42:48;;;;;;;22.98;11.70;;;;;;;13.79;91.30;101939.09;5023328;28;20400;-58
2022/07/14 03:45:13;;;;;;;22.13;11.23;;;;;;;13.75;91.64;101940.84;5021655;28;20030;-57
2022/07/14 03:47:42;;;;;;;23.08;11.57;;;;;;;13.75;91.39;101951.13;5013134;28;20034;-58
2022/07/14 03:50:08;;;;;;;22.10;11.50;;;;;;;13.80;91.49;101949.09;5016939;28;20034;-58
2022/07/14 03:52:33;;;;;;;23.65;12.00;;;;;;;13.83;91.38;101956.84;5019860;28;20366;-58
2022/07/14 03:54:59;;;;;;;23.73;11.48;;;;;;;13.83;91.27;101961.59;5015994;28;20026;-58
2022/07/14 03:57:24;;;;;;;23.38;10.75;;;;;;;13.82;90.99;101951.59;5020744;28;20030;-59
2022/07/14 03:59:49;;;;;;;21.48;11.73;;;;;;;13.77;91.44;101946.94;5012747;28;20454;-58
2022/07/14 04:02:15;;;;;;;26.27;11.70;;;;;;;13.82;91.16;101952.41;5023061;28;20464;-59
2022/07/14 04:04:40;;;;;;;24.65;11.85;;;;;;;13.88;91.05;101962.34;5011225;28;20032;-59
2022/07/14 04:07:07;;;;;;;26.73;11.68;;;;;;;14.01;89.90;101955.19;5020153;28;20032;-59
2022/07/14 04:09:32;;;;;;;25.90;11.35;;;;;;;14.01;90.09;101951.56;5015969;28;20108;-58
2022/07/14 04:11:58;;;;;;;24.13;11.70;;;;;;;14.03;89.74;101957.66;5016146;28;20461;-58
2022/07/14 04:14:24;;;;;;;23.15;11.13;;;;;;;14.02;89.42;101951.28;5019940;28;20046;-58
2022/07/14 04:16:49;;;;;;;24.98;11.52;;;;;;;14.01;90.00;101957.13;5013902;28;20063;-58
2022/07/14 04:19:15;;;;;;;24.67;11.45;;;;;;;14.03;89.65;101949.31;5022915;28;20046;-58
2022/07/14 04:21:40;;;;;;;24.65;11.15;;;;;;;14.06;89.40;101957.06;5020466;28;20026;-58
2022/07/14 04:24:06;;;;;;;24.23;10.77;;;;;;;14.01;89.89;101957.97;5024606;28;20037;-57
2022/07/14 04:26:31;;;;;;;24.05;11.57;;;;;;;14.00;89.79;101955.47;5031458;28;20048;-57
2022/07/14 04:28:57;;;;;;;21.13;10.85;;;;;;;14.04;89.22;101956.53;5023363;28;20033;-58
2022/07/14 04:31:23;;;;;;;26.58;11.38;;;;;;;14.02;89.94;101956.00;5016616;28;20030;-57
2022/07/14 04:33:48;;;;;;;24.83;10.95;;;;;;;14.06;89.42;101962.63;5016334;28;20365;-57
2022/07/14 04:36:13;;;;;;;23.60;11.13;;;;;;;14.05;89.78;101955.41;5019872;28;20498;-57
2022/07/14 04:38:39;;;;;;;23.20;11.23;;;;;;;14.08;89.80;101956.75;5014130;28;20607;-56
2022/07/14 04:41:04;;;;;;;22.88;11.07;;;;;;;14.09;89.65;101953.66;5022549;28;20075;-57
2022/07/14 04:43:29;;;;;;;24.60;11.68;;;;;;;14.10;89.53;101946.97;5011615;28;20044;-57
2022/07/14 04:45:55;;;;;;;22.05;11.15;;;;;;;14.13;89.57;101954.72;5023268;28;20139;-58
2022/07/14 04:48:20;;;;;;;23.95;11.88;;;;;;;14.14;89.37;101950.81;5012526;28;20038;-56
2022/07/14 04:53:29;;;;;;;;;;;;;;;14.28;87.70;101961.13;5015922;28;20037;-58
2022/07/14 04:55:55;;;;;;;22.10;11.48;;;;;;;14.32;87.98;101953.84;5015923;28;19988;-56
2022/07/14 04:58:24;;;;;;;25.90;11.35;;;;;;;14.36;87.92;101966.00;5019385;28;20030;-58
2022/07/14 05:00:49;;;;;;;21.42;11.27;;;;;;;14.41;87.94;101959.53;5013672;28;20386;-57
2022/07/14 05:03:14;;;;;;;22.63;11.20;;;;;;;14.45;87.79;101961.38;5020162;28;20069;-57
2022/07/14 05:05:40;;;;;;;25.00;10.75;;;;;;;14.49;87.00;101964.41;5011150;28;20445;-56
2022/07/14 05:08:05;;;;;;;24.05;11.40;;;;;;;14.58;87.11;101965.38;5023684;28;20037;-57
2022/07/14 05:10:30;;;;;;;23.83;11.25;;;;;;;14.67;86.92;101968.28;5011137;28;20074;-58
2022/07/14 05:12:56;;;;;;;22.83;11.55;;;;;;;14.71;86.12;101968.50;5018646;28;20072;-57
2022/07/14 05:15:21;;;;;;;22.02;10.88;;;;;;;14.85;85.85;101972.13;5015334;28;20030;-58
2022/07/14 05:17:47;;;;;;;22.92;11.02;;;;;;;14.91;85.32;101972.88;5015086;28;20049;-59
2022/07/14 05:20:12;;;;;;;22.08;10.85;;;;;;;14.91;85.19;101967.31;5019286;28;20104;-57
2022/07/14 05:22:39;;;;;;;25.85;10.73;;;;;;;14.90;84.73;101966.47;5013022;28;20108;-57
2022/07/14 05:25:09;;;;;;;21.83;11.35;;;;;;;14.96;85.00;101967.19;5020927;28;20524;-58
2022/07/14 05:27:35;;;;;;;24.42;11.23;;;;;;;15.09;85.03;101971.94;5011235;28;20022;-57
2022/07/14 05:30:03;;;;;;;22.67;10.63;;;;;;;15.16;84.70;101963.16;5019326;28;20056;-57
2022/07/14 05:32:29;;;;;;;23.42;11.25;;;;;;;15.30;84.02;101971.53;5029771;28;20449;-58
2022/07/14 05:34:54;;;;;;;22.05;10.48;;;;;;;15.28;83.40;101966.25;5022282;28;20088;-57
2022/07/14 05:37:19;;;;;;;22.52;10.68;;;;;;;15.35;83.50;101973.38;5016192;28;20117;-59
2022/07/14 05:39:45;;;;;;;23.65;10.68;;;;;;;15.40;83.01;101974.06;5015463;28;20061;-57
2022/07/14 05:42:11;;;;;;;23.42;10.90;;;;;;;15.43;82.17;101969.88;5021450;28;20029;-57
2022/07/14 05:44:37;;;;;;;23.40;10.88;;;;;;;15.55;82.69;101972.09;5021676;28;20029;-57
2022/07/14 05:47:02;;;;;;;29.70;11.20;;;;;;;15.55;81.18;101972.91;5021318;28;20541;-59
2022/07/14 05:49:27;;;;;;;23.27;10.82;;;;;;;15.52;81.07;101972.72;5010148;28;20457;-54
2022/07/14 05:51:53;;;;;;;24.15;11.70;;;;;;;15.58;81.45;101965.91;5021406;28;20103;-58
2022/07/14 05:54:18;;;;;;;22.65;11.02;;;;;;;15.70;81.02;101974.53;5019777;28;20026;-57
2022/07/14 05:56:43;;;;;;;28.90;12.23;;;;;;;15.77;80.50;101967.72;5017719;28;20029;-59
2022/07/14 05:59:08;;;;;;;24.08;10.80;;;;;;;15.82;80.18;101971.19;5017582;28;20026;-59
2022/07/14 06:01:34;;;;;;;26.35;10.95;;;;;;;15.89;79.48;101971.66;5018223;28;20392;-60
2022/07/14 06:03:59;;;;;;;22.83;10.20;;;;;;;15.84;78.46;101970.94;5011957;28;20049;-57
2022/07/14 06:06:25;;;;;;;24.98;10.93;;;;;;;15.81;78.67;101975.16;5017357;28;20220;-57
2022/07/14 06:08:50;;;;;;;25.70;11.18;;;;;;;15.84;78.97;101968.16;5013690;28;20038;-58
2022/07/14 06:11:16;;;;;;;22.58;11.13;;;;;;;15.89;78.22;101968.84;5013626;28;20097;-59
2022/07/14 06:13:41;;;;;;;23.83;10.48;;;;;;;16.02;78.62;101964.34;5021072;28;20037;-58
2022/07/14 06:16:07;;;;;;;24.48;11.20;;;;;;;16.19;78.37;101960.03;5026023;28;20017;-58
2022/07/14 06:18:33;;;;;;;22.77;11.00;;;;;;;16.29;77.37;101968.16;5019390;28;20050;-58
2022/07/14 06:20:58;;;;;;;22.15;11.43;;;;;;;16.33;77.10;101962.75;5013043;28;20452;-57
2022/07/14 06:23:23;;;;;;;22.42;11.40;;;;;;;16.38;77.39;101955.09;5013222;28;20033;-58
2022/07/14 06:25:49;;;;;;;23.80;11.50;;;;;;;16.48;76.02;101955.97;5028952;28;20064;-58
2022/07/14 06:28:14;;;;;;;27.13;11.88;;;;;;;16.54;75.76;101963.06;5024811;28;20528;-58
2022/07/14 06:30:40;;;;;;;23.40;11.35;;;;;;;16.65;75.93;101967.22;5018531;28;20148;-59
2022/07/14 06:33:05;;;;;;;22.00;10.75;;;;;;;16.74;75.85;101953.31;5018473;28;20077;-58
2022/07/14 06:35:31;;;;;;;25.85;11.85;;;;;;;16.80;75.19;101962.38;5022287;28;20164;-59
2022/07/14 06:37:56;;;;;;;23.50;11.65;;;;;;;16.87;74.64;101967.50;5016232;28;20389;-58
2022/07/14 06:40:22;;;;;;;26.65;12.05;;;;;;;16.89;74.63;101960.44;5022202;28;20026;-58
2022/07/14 06:42:48;;;;;;;23.55;11.70;;;;;;;16.89;74.37;101965.19;5032560;28;20109;-59
2022/07/14 06:45:14;;;;;;;23.30;11.32;;;;;;;16.96;73.50;101972.00;5025958;28;20029;-58
2022/07/14 06:47:39;;;;;;;24.10;11.63;;;;;;;17.09;72.63;101970.25;5014371;28;20034;-58
2022/07/14 06:50:06;;;;;;;23.90;10.85;;;;;;;17.01;70.55;101979.44;5021025;28;20037;-58
2022/07/14 06:52:32;;;;;;;21.80;10.70;;;;;;;17.02;71.57;101977.44;5011745;28;20166;-60
2022/07/14 06:54:58;;;;;;;23.90;11.43;;;;;;;17.05;70.78;101980.41;5018010;28;20544;-58
2022/07/14 06:57:24;;;;;;;23.50;12.60;;;;;;;17.14;71.31;101969.28;5021892;28;20113;-59
2022/07/14 06:59:49;;;;;;;21.52;10.55;;;;;;;17.24;70.91;101971.78;5015882;28;20117;-57
2022/07/14 07:02:14;;;;;;;23.88;10.45;;;;;;;17.27;70.30;101968.34;5023947;28;20117;-59
2022/07/14 07:04:40;;;;;;;19.95;10.25;;;;;;;17.36;70.45;101959.97;5013105;28;20022;-57
2022/07/14 07:07:05;;;;;;;21.90;10.27;;;;;;;17.29;69.64;101959.63;5023419;28;20052;-58
2022/07/14 07:09:31;;;;;;;23.63;10.60;;;;;;;17.41;69.67;101964.56;5014970;28;20103;-60
2022/07/14 07:11:56;;;;;;;23.00;9.68;;;;;;;17.52;69.76;101965.09;5020163;28;20030;-59
2022/07/14 07:14:21;;;;;;;21.60;9.82;;;;;;;17.55;67.92;101956.03;5020596;28;20030;-59
2022/07/14 07:16:49;;;;;;;19.80;9.00;;;;;;;17.54;67.99;101962.78;5018513;28;20033;-58
2022/07/14 07:19:15;;;;;;;20.75;9.75;;;;;;;17.60;67.63;101959.50;5022069;28;20497;-58
2022/07/14 07:21:41;;;;;;;18.80;9.18;;;;;;;17.65;66.71;101961.31;4997595;28;20103;-58
2022/07/14 07:24:07;;;;;;;19.42;9.38;;;;;;;17.62;66.81;101965.59;5024463;28;20385;-59
2022/07/14 07:26:35;;;;;;;20.00;9.18;;;;;;;17.61;66.19;101966.75;5013240;28;20033;-58
2022/07/14 07:29:02;;;;;;;18.73;8.90;;;;;;;17.53;65.10;101970.38;5024287;28;20580;-59
2022/07/14 07:31:27;;;;;;;19.42;9.48;;;;;;;17.57;65.89;101968.53;5015381;28;20151;-59
2022/07/14 07:33:53;;;;;;;20.27;9.40;;;;;;;17.70;66.26;101974.34;5018863;28;20061;-59
2022/07/14 07:36:18;;;;;;;21.70;10.00;;;;;;;17.75;66.23;101968.59;5002199;28;20026;-58
2022/07/14 07:38:44;;;;;;;21.63;9.65;;;;;;;17.87;67.19;101949.16;5013021;28;20108;-57
2022/07/14 07:41:09;;;;;;;20.95;9.88;;;;;;;18.06;67.18;101937.66;5021202;28;20102;-57
2022/07/14 07:43:35;;;;;;;21.73;9.50;;;;;;;18.13;66.11;101933.53;5017870;28;20370;-59
2022/07/14 07:46:02;;;;;;;19.73;9.27;;;;;;;18.26;65.49;101928.88;5021960;28;20121;-57
2022/07/14 07:48:29;;;;;;;18.92;8.48;;;;;;;18.19;62.55;101938.63;5011307;28;20037;-57
2022/07/14 07:50:55;;;;;;;20.92;9.30;;;;;;;18.14;63.76;101935.16;5022332;28;20404;-59
2022/07/14 07:53:20;;;;;;;19.23;9.57;;;;;;;18.22;65.53;101932.38;5010404;28;20419;-58
2022/07/14 07:55:45;;;;;;;20.42;9.63;;;;;;;18.33;64.34;101932.00;5019439;28;20029;-58
2022/07/14 07:58:11;;;;;;;20.98;9.07;;;;;;;18.51;63.17;101935.59;5013177;28;20026;-57
2022/07/14 08:00:36;;;;;;;20.98;9.18;;;;;;;18.50;61.20;101931.13;5013492;28;20041;-58
2022/07/14 08:03:02;;;;;;;23.92;9.85;;;;;;;18.39;61.80;101925.88;5009758;28;20468;-56
2022/07/14 08:05:29;;;;;;;19.05;9.13;;;;;;;18.37;61.49;101936.59;5016997;28;20045;-57
2022/07/14 08:07:55;;;;;;;18.95;9.10;;;;;;;18.54;62.05;101916.13;5029602;28;20141;-57
2022/07/14 08:10:21;;;;;;;19.13;8.65;;;;;;;18.73;62.31;101914.88;5029604;28;20116;-57
2022/07/14 08:12:46;;;;;;;19.92;9.32;;;;;;;18.84;61.91;101912.56;5023830;28;20036;-57
2022/07/14 08:15:13;;;;;;;24.05;9.00;;;;;;;18.97;60.71;101916.31;5021435;28;20040;-57
2022/07/14 08:17:39;;;;;;;19.48;8.80;;;;;;;18.91;59.42;101915.66;5009431;28;20087;-57
2022/07/14 08:20:06;;;;;;;19.58;8.95;;;;;;;19.02;60.13;101907.69;5013893;28;20068;-57
2022/07/14 08:22:31;;;;;;;18.60;8.95;;;;;;;19.16;60.40;101911.09;5019403;28;20061;-57
2022/07/14 08:24:57;;;;;;;21.98;9.32;;;;;;;19.31;60.23;101915.28;5012951;28;20434;-57
2022/07/14 08:27:23;;;;;;;19.00;8.85;;;;;;;19.36;59.22;101911.47;5021666;28;20053;-57
2022/07/14 08:29:49;;;;;;;18.92;8.70;;;;;;;19.33;58.55;101898.09;5018101;28;20069;-57
2022/07/14 08:32:14;;;;;;;20.23;8.40;;;;;;;19.38;58.54;101909.09;5012421;28;20045;-57
2022/07/14 08:34:40;;;;;;;18.67;8.57;;;;;;;19.33;57.57;101903.72;5022796;28;20503;-57
2022/07/14 08:37:06;;;;;;;18.48;8.40;;;;;;;19.38;56.06;101897.09;5027066;28;20147;-57
2022/07/14 08:39:32;;;;;;;20.83;9.38;;;;;;;19.41;56.79;101888.00;5018866;28;20057;-62
2022/07/14 08:42:00;;;;;;;17.75;8.20;;;;;;;19.51;55.69;101883.94;5018192;28;20033;-59
2022/07/14 08:44:25;;;;;;;17.23;8.18;;;;;;;19.70;53.93;101900.28;5015258;28;20521;-57
2022/07/14 08:46:52;;;;;;;15.93;7.90;;;;;;;19.71;53.41;101901.91;5017568;28;20112;-62
2022/07/14 08:49:18;;;;;;;16.48;7.97;;;;;;;19.71;53.97;101891.53;5028971;28;20104;-63
2022/07/14 08:51:45;;;;;;;15.35;7.97;;;;;;;19.63;53.98;101889.63;5010221;28;20136;-60
2022/07/14 08:54:10;;;;;;;16.83;8.10;;;;;;;19.74;53.76;101887.22;5010477;28;20030;-58
2022/07/14 08:56:39;;;;;;;16.45;8.23;;;;;;;19.85;55.49;101893.22;5028793;28;20058;-59
2022/07/14 08:59:05;;;;;;;16.30;8.90;;;;;;;19.94;54.34;101893.97;5021217;28;20045;-57
2022/07/14 09:01:31;;;;;;;18.70;8.30;;;;;;;19.82;53.51;101885.50;5008334;28;20034;-58
2022/07/14 09:03:57;;;;;;;18.50;7.97;;;;;;;19.92;53.91;101876.69;5011678;28;20029;-58
2022/07/14 09:06:48;;;;;;;19.58;8.10;;;;;;;20.09;53.33;101886.91;5016941;28;20105;-60
2022/07/14 09:09:24;;;;;;;16.67;7.88;;;;;;;20.23;53.51;101881.81;5012048;28;20021;-60
2022/07/14 09:12:09;;;;;;;17.70;8.00;;;;;;;20.47;52.08;101883.00;5030526;28;20034;-59
2022/07/14 09:17:25;;;;;;;17.27;8.00;;;;;;;20.76;50.12;101877.56;5010218;28;20228;-58
2022/07/14 09:20:10;;;;;;;17.40;8.40;;;;;;;20.88;51.10;101883.16;5010869;28;20018;-58
2022/07/14 09:22:38;;;;;;;18.38;8.10;;;;;;;20.92;49.92;101886.13;5010416;28;20107;-58
2022/07/14 09:25:06;;;;;;;17.35;7.65;;;;;;;20.99;49.66;101884.34;5010456;28;20454;-60
2022/07/14 09:27:32;;;;;;;15.95;7.30;;;;;;;21.16;49.67;101879.66;5010423;28;20038;-60
2022/07/14 09:29:58;;;;;;;15.15;7.20;;;;;;;21.14;48.21;101879.19;5010399;28;20030;-59
2022/07/14 09:32:43;;;;;;;14.93;7.18;;;;;;;21.24;47.33;101875.03;5010186;28;20025;-59
2022/07/14 09:35:11;;;;;;;15.95;7.38;;;;;;;21.21;45.30;101876.59;5008770;28;20418;-60
2022/07/14 09:37:37;;;;;;;16.90;7.60;;;;;;;21.34;46.58;101881.03;5009086;28;20095;-59
2022/07/14 09:40:04;;;;;;;16.40;7.57;;;;;;;21.35;46.62;101879.81;5009744;28;20038;-60
2022/07/14 09:42:57;;;;;;;18.23;7.20;;;;;;;21.33;47.78;101872.91;5010391;28;20042;-59
2022/07/14 09:45:34;;;;;;;15.82;7.20;;;;;;;21.51;47.68;101876.28;4992989;28;20049;-59
2022/07/14 09:48:07;;;;;;;16.25;7.45;;;;;;;21.51;46.79;101867.81;5010201;28;20030;-60
2022/07/14 09:50:42;;;;;;;;;;;;;;;21.71;47.25;101874.47;5010588;28;20049;-60
2022/07/14 09:53:11;;;;;;;18.45;7.78;;;;;;;21.79;47.17;101881.94;5010276;28;19960;-59
2022/07/14 09:55:39;;;;;;;19.08;7.85;;;;;;;21.91;46.34;101869.81;5010173;28;20026;-59
2022/07/14 09:58:06;;;;;;;16.02;7.60;;;;;;;22.15;46.11;101868.03;5010386;28;20034;-59
2022/07/14 10:00:34;;;;;;;15.80;7.30;;;;;;;22.38;45.71;101867.44;5010664;28;20528;-59
2022/07/14 10:03:02;;;;;;;13.90;7.20;;;;;;;22.32;43.77;101872.50;5016233;28;20022;-59
2022/07/14 10:05:28;;;;;;;16.80;7.10;;;;;;;22.36;43.35;101867.78;5018502;28;20061;-58
2022/07/14 10:07:57;;;;;;;15.15;7.20;;;;;;;22.46;42.86;101868.44;5033232;28;20025;-59
2022/07/14 10:10:22;;;;;;;16.65;6.63;;;;;;;22.51;42.34;101869.00;5027932;28;20461;-59
2022/07/14 10:12:49;;;;;;;13.40;7.00;;;;;;;22.62;42.32;101874.09;5021008;28;20144;-56
2022/07/14 10:15:14;;;;;;;16.00;7.10;;;;;;;22.68;41.42;101879.09;5018655;28;20101;-59
2022/07/14 10:17:42;;;;;;;14.77;7.57;;;;;;;22.62;42.69;101882.53;5012669;28;20368;-58
2022/07/14 10:20:10;;;;;;;13.63;7.40;;;;;;;22.32;42.86;101880.97;5023758;28;20125;-58
2022/07/14 10:22:36;;;;;;;12.98;7.40;;;;;;;22.42;42.81;101882.44;5025411;28;20037;-59
2022/07/14 10:25:07;;;;;;;14.93;7.00;;;;;;;22.57;42.71;101894.91;5014542;28;20029;-59
2022/07/14 10:27:33;;;;;;;12.85;7.45;;;;;;;22.73;41.61;101889.28;5018441;28;20500;-58
2022/07/14 10:29:59;;;;;;;16.58;7.80;;;;;;;22.87;42.13;101886.78;5026023;28;20048;-57
2022/07/14 10:32:50;;;;;;;16.73;7.13;;;;;;;23.25;41.30;101892.13;5019977;28;20114;-57
2022/07/14 10:35:26;;;;;;;14.90;7.40;;;;;;;23.23;39.92;101889.66;5014063;28;20113;-59
2022/07/14 10:38:30;;;;;;;15.52;7.00;;;;;;;23.37;39.31;101883.53;5017171;28;20450;-59
2022/07/14 10:41:13;;;;;;;15.63;7.78;;;;;;;23.17;40.18;101886.28;5018709;28;20048;-59
2022/07/14 10:44:00;;;;;;;;;;;;;;;23.23;41.24;101878.38;5007981;28;20413;-57
2022/07/14 10:46:37;;;;;;;18.30;7.13;;;;;;;23.19;39.67;101880.31;5015778;28;20292;-56
2022/07/14 10:49:07;;;;;;;15.32;7.28;;;;;;;23.29;39.34;101882.53;5024188;28;20047;-57
2022/07/14 10:51:34;;;;;;;14.82;7.50;;;;;;;23.38;38.43;101878.72;5018478;28;20096;-57
2022/07/14 10:54:11;;;;;;;14.15;7.43;;;;;;;23.52;38.93;101871.34;5017494;28;20131;-57
2022/07/14 10:56:38;;;;;;;16.52;7.80;;;;;;;23.45;39.27;101874.00;5018113;28;20394;-57
2022/07/14 10:59:25;;;;;;;15.98;8.05;;;;;;;23.73;39.57;101881.44;5016616;28;20055;-57
2022/07/14 11:02:12;;;;;;;16.25;7.70;;;;;;;23.62;39.36;101872.75;4999979;28;20029;-57
2022/07/14 11:05:08;;;;;;;14.48;7.80;;;;;;;23.45;39.69;101874.00;5027257;28;20061;-57
2022/07/14 11:07:43;;;;;;;16.08;7.85;;;;;;;23.44;40.42;101882.88;5025736;28;20033;-58
2022/07/14 11:10:11;;;;;;;11.85;7.35;;;;;;;23.51;38.49;101885.84;5017272;28;20022;-58
2022/07/14 11:12:59;;;;;;;14.77;7.50;;;;;;;23.80;38.50;101881.63;4999955;28;20474;-61
2022/07/14 11:15:49;;;;;;;13.95;7.10;;;;;;;23.89;33.22;101880.56;5015367;28;20038;-57
2022/07/14 11:18:17;;;;;;;14.27;6.97;;;;;;;23.95;35.06;101888.38;5010757;28;20054;-57
2022/07/14 11:20:51;;;;;;;15.40;7.53;;;;;;;23.87;34.92;101878.09;5010933;28;20109;-58
2022/07/14 11:23:23;;;;;;;;;;;;;;;24.02;37.01;101882.06;5011366;28;20044;-58
2022/07/14 11:25:54;;;;;;;14.65;7.38;;;;;;;24.10;37.96;101871.72;4992748;28;19917;-58